Time;durP1;ratioP1;P1;durP2;ratioP2;P2;SDS_P1;SDS_P2;PMS_P1;PMS_P2;Temp;Humidity;BMP_temperature;BMP_pressure;BME280_temperature;BME280_humidity;BME280_pressure;Samples;Min_cycle;Max_cycle;Signal;HPM_P1;HPM_P2
2023/03/16 00:02:03;;;;;;;8.60;3.92;;;;;;;;;;4957272;28;20506;-76
2023/03/16 00:04:30;;;;;;;6.20;3.90;;;;;;;;;;4974636;28;20077;-76
2023/03/16 00:06:56;;;;;;;7.35;3.90;;;;;;;;;;4974671;28;20042;-76
2023/03/16 00:09:29;;;;;;;8.15;4.15;;;;;;;;;;4977160;28;20049;-76
2023/03/16 00:11:56;;;;;;;7.18;3.25;;;;;;;;;;4978699;28;20050;-76
2023/03/16 00:14:22;;;;;;;9.32;4.07;;;;;;;;;;4961177;28;20131;-76
2023/03/16 00:16:48;;;;;;;7.57;4.05;;;;;;;;;;4972990;28;20082;-76
2023/03/16 00:19:14;;;;;;;11.02;5.22;;;;;;;;;;4978227;28;20135;-76
2023/03/16 00:21:40;;;;;;;8.40;4.43;;;;;;;;;;4978365;28;20061;-76
2023/03/16 00:24:06;;;;;;;8.27;4.68;;;;;;;;;;4978733;28;20128;-76
2023/03/16 00:26:32;;;;;;;5.75;3.65;;;;;;;;;;4988243;28;20497;-76
2023/03/16 00:28:59;;;;;;;9.55;4.07;;;;;;;;;;4996417;28;20053;-76
2023/03/16 00:31:25;;;;;;;7.15;3.50;;;;;;;;;;4996782;28;20042;-76
2023/03/16 00:33:51;;;;;;;8.82;4.25;;;;;;;;;;4991855;28;20089;-76
2023/03/16 00:36:17;;;;;;;8.48;4.15;;;;;;;;;;4978079;28;20409;-76
2023/03/16 00:38:43;;;;;;;7.00;3.95;;;;;;;;;;4980906;28;20039;-76
2023/03/16 00:41:13;;;;;;;8.27;3.72;;;;;;;;;;4980410;28;20043;-76
2023/03/16 00:43:39;;;;;;;5.95;3.75;;;;;;;;;;4978053;28;20135;-76
2023/03/16 00:46:10;;;;;;;5.63;3.47;;;;;;;;;;4977906;28;20047;-76
2023/03/16 00:48:37;;;;;;;5.50;3.75;;;;;;;;;;4977762;28;20043;-76
2023/03/16 00:51:05;;;;;;;5.57;3.50;;;;;;;;;;4969244;28;20122;-76
2023/03/16 00:53:34;;;;;;;6.00;3.60;;;;;;;;;;4958699;28;20051;-76
2023/03/16 00:56:04;;;;;;;5.32;3.45;;;;;;;;;;4975079;28;20046;-76
2023/03/16 00:58:34;;;;;;;6.32;4.18;;;;;;;;;;4977843;28;20043;-76
2023/03/16 01:01:05;;;;;;;5.75;3.58;;;;;;;;;;4977977;28;20094;-76
2023/03/16 01:03:31;;;;;;;5.00;3.55;;;;;;;;;;4977711;28;20043;-76
2023/03/16 01:06:00;;;;;;;6.20;3.53;;;;;;;;;;4977895;28;20043;-76
2023/03/16 01:08:29;;;;;;;6.32;3.70;;;;;;;;;;4968551;28;20053;-76
2023/03/16 01:10:56;;;;;;;5.90;3.60;;;;;;;;;;4965738;28;20039;-76
2023/03/16 01:13:22;;;;;;;5.07;4.05;;;;;;;;;;4976836;28;20078;-76
2023/03/16 01:15:51;;;;;;;8.82;4.57;;;;;;;;;;4976697;28;20409;-75
2023/03/16 01:18:17;;;;;;;6.75;4.00;;;;;;;;;;4963394;28;20051;-76
2023/03/16 01:20:49;;;;;;;7.18;3.95;;;;;;;;;;4973504;28;20063;-76
2023/03/16 01:23:16;;;;;;;8.20;4.03;;;;;;;;;;4976766;28;20105;-76
2023/03/16 01:25:42;;;;;;;8.55;4.43;;;;;;;;;;4976092;28;20054;-76
2023/03/16 01:28:08;;;;;;;6.22;3.75;;;;;;;;;;4974136;28;20050;-76
2023/03/16 01:30:34;;;;;;;9.65;3.90;;;;;;;;;;4975644;28;20043;-76
2023/03/16 01:33:01;;;;;;;6.05;3.88;;;;;;;;;;4977117;28;20383;-76
2023/03/16 01:35:27;;;;;;;9.60;3.88;;;;;;;;;;4976674;28;20391;-76
2023/03/16 01:37:53;;;;;;;5.90;4.00;;;;;;;;;;4976003;28;20051;-76
2023/03/16 01:40:19;;;;;;;6.72;3.80;;;;;;;;;;4977124;28;20046;-76
2023/03/16 01:42:46;;;;;;;8.27;4.32;;;;;;;;;;4977261;28;20089;-76
2023/03/16 01:45:31;;;;;;;7.28;4.00;;;;;;;;;;4976351;28;20038;-76
2023/03/16 01:47:57;;;;;;;7.15;4.15;;;;;;;;;;4977165;28;20053;-76
2023/03/16 01:50:23;;;;;;;4.55;4.00;;;;;;;;;;4976482;28;20062;-76
2023/03/16 01:52:51;;;;;;;6.47;3.90;;;;;;;;;;4976807;28;20046;-76
2023/03/16 01:55:17;;;;;;;5.05;4.03;;;;;;;;;;4976594;28;20043;-76
2023/03/16 01:57:44;;;;;;;8.05;4.43;;;;;;;;;;4974920;28;20058;-76
2023/03/16 02:00:19;;;;;;;5.65;3.78;;;;;;;;;;4960935;28;20079;-76
2023/03/16 02:02:50;;;;;;;8.52;4.80;;;;;;;;;;4957705;28;20167;-76
2023/03/16 02:05:22;;;;;;;6.05;4.57;;;;;;;;;;4967984;28;20047;-76
2023/03/16 02:07:50;;;;;;;6.78;4.13;;;;;;;;;;4976590;28;20130;-76
2023/03/16 02:10:17;;;;;;;9.68;4.80;;;;;;;;;;4976217;28;20211;-76
2023/03/16 02:12:44;;;;;;;6.28;3.90;;;;;;;;;;4979489;28;20093;-75
2023/03/16 02:15:12;;;;;;;5.97;4.03;;;;;;;;;;4981368;28;20080;-76
2023/03/16 02:17:39;;;;;;;5.95;3.65;;;;;;;;;;4960354;28;20142;-76
2023/03/16 02:20:15;;;;;;;6.72;3.95;;;;;;;;;;4976060;28;20058;-76
2023/03/16 02:22:43;;;;;;;5.60;4.10;;;;;;;;;;4976330;28;20097;-76
2023/03/16 02:25:09;;;;;;;5.53;3.85;;;;;;;;;;4976368;28;20054;-76
2023/03/16 02:27:54;;;;;;;5.80;3.90;;;;;;;;;;4975709;28;20049;-76
2023/03/16 02:30:20;;;;;;;6.00;4.18;;;;;;;;;;4975971;28;20042;-76
2023/03/16 02:32:50;;;;;;;7.00;3.78;;;;;;;;;;4972761;28;20578;-76
2023/03/16 02:35:16;;;;;;;7.38;3.78;;;;;;;;;;4973865;28;20047;-76
2023/03/16 02:37:42;;;;;;;4.97;3.72;;;;;;;;;;4972754;28;20068;-75
2023/03/16 02:40:21;;;;;;;4.80;3.70;;;;;;;;;;4976121;28;20047;-76
2023/03/16 02:42:53;;;;;;;6.30;4.20;;;;;;;;;;4960230;28;20110;-76
2023/03/16 02:45:20;;;;;;;6.40;4.22;;;;;;;;;;4972530;28;20050;-76
2023/03/16 02:47:47;;;;;;;6.03;3.92;;;;;;;;;;4960891;28;20043;-76
2023/03/16 02:50:14;;;;;;;6.57;3.97;;;;;;;;;;4975182;28;20089;-76
2023/03/16 02:52:40;;;;;;;6.32;4.07;;;;;;;;;;4975991;28;20047;-76
2023/03/16 02:55:07;;;;;;;8.20;4.57;;;;;;;;;;4975671;28;20105;-76
2023/03/16 02:57:33;;;;;;;5.80;4.15;;;;;;;;;;4975473;28;20054;-75
2023/03/16 03:00:00;;;;;;;5.40;4.00;;;;;;;;;;4973594;28;20414;-75
2023/03/16 03:02:26;;;;;;;6.47;4.05;;;;;;;;;;4956339;28;20134;-75
2023/03/16 03:04:53;;;;;;;4.97;3.85;;;;;;;;;;4967891;28;20051;-76
2023/03/16 03:07:20;;;;;;;6.75;4.00;;;;;;;;;;4975381;28;20497;-75
2023/03/16 03:09:46;;;;;;;5.20;4.38;;;;;;;;;;4975243;28;20130;-76
2023/03/16 03:12:12;;;;;;;4.68;4.00;;;;;;;;;;4990349;28;20113;-76
2023/03/16 03:14:39;;;;;;;6.82;4.40;;;;;;;;;;4975233;28;20042;-75
2023/03/16 03:17:06;;;;;;;6.85;3.90;;;;;;;;;;4976613;28;20039;-75
2023/03/16 03:19:33;;;;;;;5.47;4.10;;;;;;;;;;4974768;28;20074;-75
2023/03/16 03:21:59;;;;;;;6.07;4.50;;;;;;;;;;4975452;28;20086;-76
2023/03/16 03:24:26;;;;;;;7.93;4.28;;;;;;;;;;4975281;28;20062;-76
2023/03/16 03:26:53;;;;;;;6.63;4.13;;;;;;;;;;4974777;28;20050;-75
2023/03/16 03:29:19;;;;;;;6.40;4.32;;;;;;;;;;4974341;28;20118;-76
2023/03/16 03:31:48;;;;;;;5.40;4.30;;;;;;;;;;4974530;28;20039;-76
2023/03/16 03:34:14;;;;;;;6.70;4.35;;;;;;;;;;4978748;28;20141;-76
2023/03/16 03:36:40;;;;;;;6.03;4.20;;;;;;;;;;4994641;28;20053;-76
2023/03/16 03:39:06;;;;;;;5.53;4.03;;;;;;;;;;4994363;28;20125;-75
2023/03/16 03:41:33;;;;;;;6.28;4.15;;;;;;;;;;4972713;28;20078;-76
2023/03/16 03:43:59;;;;;;;7.05;4.95;;;;;;;;;;4955154;28;20043;-76
2023/03/16 03:46:25;;;;;;;6.97;4.10;;;;;;;;;;4971665;28;20039;-75
2023/03/16 03:48:52;;;;;;;5.72;4.05;;;;;;;;;;4974580;28;20061;-75
2023/03/16 03:51:18;;;;;;;5.82;4.13;;;;;;;;;;4974431;28;20070;-76
2023/03/16 03:53:44;;;;;;;6.47;4.70;;;;;;;;;;4971594;28;20062;-76
2023/03/16 03:56:10;;;;;;;6.78;4.30;;;;;;;;;;4972825;28;20390;-76
2023/03/16 03:58:36;;;;;;;7.60;4.68;;;;;;;;;;4971877;28;20050;-75
2023/03/16 04:01:02;;;;;;;6.22;4.72;;;;;;;;;;4974008;28;20422;-76
2023/03/16 04:03:28;;;;;;;7.95;4.60;;;;;;;;;;4974881;28;20422;-76
2023/03/16 04:05:55;;;;;;;6.85;4.63;;;;;;;;;;4975216;28;20108;-76
2023/03/16 04:08:21;;;;;;;5.25;4.75;;;;;;;;;;4974352;28;20050;-76
2023/03/16 04:10:48;;;;;;;6.00;4.68;;;;;;;;;;4959828;28;20042;-76
2023/03/16 04:13:14;;;;;;;6.55;4.65;;;;;;;;;;4974618;28;20110;-75
2023/03/16 04:15:40;;;;;;;6.88;4.80;;;;;;;;;;5005799;28;20042;-75
2023/03/16 04:18:06;;;;;;;5.93;4.75;;;;;;;;;;4975235;28;20053;-75
2023/03/16 04:20:32;;;;;;;6.60;4.80;;;;;;;;;;4974275;28;20053;-75
2023/03/16 04:22:58;;;;;;;8.35;4.95;;;;;;;;;;4975095;28;20054;-75
2023/03/16 04:25:25;;;;;;;7.00;4.88;;;;;;;;;;4973750;28;20434;-75
2023/03/16 04:27:51;;;;;;;6.45;5.00;;;;;;;;;;4974808;28;20125;-76
2023/03/16 04:30:18;;;;;;;7.47;5.07;;;;;;;;;;4974765;28;20094;-76
2023/03/16 04:32:44;;;;;;;10.00;5.03;;;;;;;;;;4962548;28;20082;-76
2023/03/16 04:35:10;;;;;;;7.93;4.88;;;;;;;;;;4944668;28;20146;-75
2023/03/16 04:37:36;;;;;;;7.07;4.57;;;;;;;;;;4972823;28;20075;-75
2023/03/16 04:40:14;;;;;;;7.40;4.95;;;;;;;;;;4974488;28;20046;-75
2023/03/16 04:42:40;;;;;;;8.30;5.10;;;;;;;;;;5004085;28;20386;-75
2023/03/16 04:45:07;;;;;;;8.15;5.10;;;;;;;;;;4974067;28;20043;-76
2023/03/16 04:47:33;;;;;;;6.72;4.63;;;;;;;;;;4974187;28;20059;-75
2023/03/16 04:50:01;;;;;;;7.97;5.20;;;;;;;;;;4959785;28;20410;-75
2023/03/16 04:52:27;;;;;;;6.80;5.30;;;;;;;;;;4969748;28;20401;-75
2023/03/16 04:54:53;;;;;;;7.75;5.43;;;;;;;;;;4976065;28;20553;-75
2023/03/16 04:57:19;;;;;;;8.73;5.35;;;;;;;;;;4976336;28;20046;-75
2023/03/16 04:59:45;;;;;;;7.03;5.18;;;;;;;;;;4978052;28;20055;-75
2023/03/16 05:02:11;;;;;;;7.30;4.85;;;;;;;;;;4984655;28;20065;-76
2023/03/16 05:04:38;;;;;;;6.60;5.03;;;;;;;;;;4978742;28;20105;-75
2023/03/16 05:07:04;;;;;;;7.20;5.30;;;;;;;;;;4963243;28;20051;-76
2023/03/16 05:09:30;;;;;;;8.98;5.47;;;;;;;;;;4958292;28;20047;-76
2023/03/16 05:11:56;;;;;;;9.48;6.03;;;;;;;;;;4965430;28;20064;-75
2023/03/16 05:14:22;;;;;;;8.57;5.78;;;;;;;;;;4978227;28;20477;-76
2023/03/16 05:16:48;;;;;;;9.63;6.15;;;;;;;;;;4982076;28;20094;-76
2023/03/16 05:19:14;;;;;;;9.57;6.15;;;;;;;;;;4981951;28;20137;-76
2023/03/16 05:21:40;;;;;;;9.75;6.35;;;;;;;;;;4977817;28;20050;-75
2023/03/16 05:24:06;;;;;;;12.02;6.63;;;;;;;;;;4963958;28;20047;-75
2023/03/16 05:26:33;;;;;;;9.65;6.35;;;;;;;;;;4974725;28;20035;-75
2023/03/16 05:28:59;;;;;;;9.35;6.55;;;;;;;;;;4958242;28;20042;-75
2023/03/16 05:31:26;;;;;;;10.27;6.45;;;;;;;;;;4957619;28;20039;-75
2023/03/16 05:33:53;;;;;;;10.65;6.60;;;;;;;;;;4974522;28;20045;-75
2023/03/16 05:36:19;;;;;;;8.93;6.03;;;;;;;;;;4976785;28;20069;-75
2023/03/16 05:38:46;;;;;;;9.25;6.20;;;;;;;;;;4976012;28;20121;-75
2023/03/16 05:41:13;;;;;;;10.23;6.65;;;;;;;;;;4974927;28;20498;-75
2023/03/16 05:43:39;;;;;;;12.57;6.95;;;;;;;;;;4974066;28;20047;-75
2023/03/16 05:46:05;;;;;;;8.63;6.85;;;;;;;;;;4976862;28;20047;-75
2023/03/16 05:48:31;;;;;;;10.63;7.18;;;;;;;;;;4993455;28;20122;-75
2023/03/16 05:50:57;;;;;;;11.13;7.35;;;;;;;;;;4976375;28;20042;-75
2023/03/16 05:53:27;;;;;;;10.00;6.97;;;;;;;;;;4976520;28;20097;-75
2023/03/16 05:55:53;;;;;;;11.90;8.05;;;;;;;;;;4976097;28;20045;-75
2023/03/16 05:58:20;;;;;;;11.40;7.95;;;;;;;;;;4976095;28;20042;-75
2023/03/16 06:00:46;;;;;;;11.00;7.55;;;;;;;;;;4976112;28;20047;-75
2023/03/16 06:03:12;;;;;;;9.77;6.82;;;;;;;;;;4976481;28;20074;-75
2023/03/16 06:05:38;;;;;;;9.93;7.50;;;;;;;;;;4975983;28;20043;-74
2023/03/16 06:08:04;;;;;;;10.68;7.90;;;;;;;;;;4976167;28;20054;-75
2023/03/16 06:10:30;;;;;;;12.80;8.10;;;;;;;;;;4976179;28;20498;-75
2023/03/16 06:12:56;;;;;;;11.55;7.90;;;;;;;;;;4976788;28;20047;-75
2023/03/16 06:15:28;;;;;;;11.48;7.65;;;;;;;;;;4975175;28;20039;-75
2023/03/16 06:17:54;;;;;;;10.18;7.65;;;;;;;;;;4976744;28;20095;-74
2023/03/16 06:20:21;;;;;;;13.80;8.00;;;;;;;;;;4975837;28;20085;-75
2023/03/16 06:22:47;;;;;;;11.40;7.38;;;;;;;;;;4976043;28;20494;-75
2023/03/16 06:25:13;;;;;;;10.65;7.40;;;;;;;;;;4975499;28;20617;-75
2023/03/16 06:27:39;;;;;;;10.27;7.00;;;;;;;;;;4975909;28;20051;-75
2023/03/16 06:30:07;;;;;;;12.80;7.72;;;;;;;;;;4975903;28;20053;-75
2023/03/16 06:32:34;;;;;;;10.43;7.85;;;;;;;;;;4957809;28;20074;-75
2023/03/16 06:35:02;;;;;;;9.60;7.32;;;;;;;;;;4976060;28;20497;-75
2023/03/16 06:37:28;;;;;;;11.40;7.35;;;;;;;;;;4976101;28;20047;-75
2023/03/16 06:39:54;;;;;;;10.00;7.68;;;;;;;;;;4975597;28;20162;-76
2023/03/16 06:42:21;;;;;;;10.15;7.25;;;;;;;;;;4975928;28;20050;-75
2023/03/16 06:44:47;;;;;;;11.05;7.35;;;;;;;;;;4990351;28;20043;-76
2023/03/16 06:47:13;;;;;;;11.98;7.43;;;;;;;;;;4975719;28;20085;-75
2023/03/16 06:49:56;;;;;;;11.23;7.05;;;;;;;;;;4957357;28;20048;-76
2023/03/16 06:52:23;;;;;;;8.98;7.20;;;;;;;;;;4956462;28;20065;-75
2023/03/16 06:54:49;;;;;;;8.93;7.55;;;;;;;;;;4968044;28;20065;-75
2023/03/16 06:57:18;;;;;;;10.77;7.45;;;;;;;;;;4975612;28;20043;-75
2023/03/16 06:59:44;;;;;;;15.02;8.13;;;;;;;;;;4974884;28;20057;-79
2023/03/16 07:02:13;;;;;;;10.75;6.80;;;;;;;;;;5002978;28;20046;-77
2023/03/16 07:04:40;;;;;;;10.88;7.85;;;;;;;;;;4975397;28;20410;-75
2023/03/16 07:07:07;;;;;;;10.68;7.28;;;;;;;;;;4971302;28;20047;-75
2023/03/16 07:09:33;;;;;;;8.95;6.55;;;;;;;;;;4983572;28;20050;-75
2023/03/16 07:12:03;;;;;;;10.88;7.50;;;;;;;;;;4975070;28;20039;-76
2023/03/16 07:14:29;;;;;;;12.10;8.05;;;;;;;;;;4974609;28;20058;-75
2023/03/16 07:16:55;;;;;;;10.70;7.07;;;;;;;;;;4973478;28;20074;-75
2023/03/16 07:19:21;;;;;;;11.43;7.03;;;;;;;;;;4987952;28;20449;-75
2023/03/16 07:21:48;;;;;;;9.93;7.03;;;;;;;;;;4973808;28;20046;-75
2023/03/16 07:24:14;;;;;;;10.50;7.30;;;;;;;;;;4972479;28;20062;-75
2023/03/16 07:26:41;;;;;;;9.00;6.90;;;;;;;;;;4973150;28;20058;-75
2023/03/16 07:29:08;;;;;;;10.43;6.53;;;;;;;;;;4973003;28;20059;-75
2023/03/16 07:31:34;;;;;;;9.05;6.82;;;;;;;;;;4988811;28;20108;-75
2023/03/16 07:34:01;;;;;;;9.43;6.38;;;;;;;;;;4990124;28;20058;-75
2023/03/16 07:36:27;;;;;;;9.98;6.88;;;;;;;;;;4974562;28;20053;-75
2023/03/16 07:38:54;;;;;;;9.57;6.75;;;;;;;;;;4975149;28;20057;-75
2023/03/16 07:41:20;;;;;;;11.13;6.85;;;;;;;;;;4974817;28;20109;-75
2023/03/16 07:43:46;;;;;;;11.43;6.68;;;;;;;;;;4974929;28;20125;-75
2023/03/16 07:46:12;;;;;;;9.18;6.68;;;;;;;;;;4974023;28;20043;-75
2023/03/16 07:48:42;;;;;;;9.63;6.80;;;;;;;;;;4975342;28;20490;-75
2023/03/16 07:51:13;;;;;;;9.68;6.90;;;;;;;;;;4989822;28;20493;-75
2023/03/16 07:53:39;;;;;;;12.10;6.68;;;;;;;;;;4973828;28;20106;-76
2023/03/16 07:56:05;;;;;;;9.60;6.68;;;;;;;;;;4973248;28;20047;-76
2023/03/16 07:58:31;;;;;;;10.80;6.90;;;;;;;;;;4972996;28;20165;-75
2023/03/16 08:00:58;;;;;;;11.23;7.18;;;;;;;;;;4987631;28;20050;-76
2023/03/16 08:03:25;;;;;;;8.98;6.82;;;;;;;;;;4973485;28;20406;-76
2023/03/16 08:05:52;;;;;;;11.38;6.80;;;;;;;;;;4974687;28;20117;-75
2023/03/16 08:08:18;;;;;;;10.20;6.90;;;;;;;;;;4973260;28;20055;-76
2023/03/16 08:10:46;;;;;;;11.23;7.00;;;;;;;;;;4973945;28;20054;-76
2023/03/16 08:13:13;;;;;;;11.57;7.00;;;;;;;;;;4974481;28;20051;-76
2023/03/16 08:15:39;;;;;;;14.65;7.10;;;;;;;;;;4974749;28;20053;-75
2023/03/16 08:18:06;;;;;;;9.75;7.10;;;;;;;;;;4974604;28;20382;-76
2023/03/16 08:20:32;;;;;;;10.07;6.60;;;;;;;;;;4973697;28;20568;-76
2023/03/16 08:22:59;;;;;;;10.23;6.20;;;;;;;;;;4978802;28;20054;-76
2023/03/16 08:25:25;;;;;;;9.32;6.25;;;;;;;;;;4979210;28;20078;-77
2023/03/16 08:27:52;;;;;;;10.35;6.68;;;;;;;;;;4960031;28;20054;-76
2023/03/16 08:30:18;;;;;;;11.23;6.43;;;;;;;;;;4978713;28;20129;-76
2023/03/16 08:32:44;;;;;;;11.80;7.07;;;;;;;;;;4977956;28;20387;-77
2023/03/16 08:35:15;;;;;;;9.63;6.57;;;;;;;;;;4978029;28;20146;-75
2023/03/16 08:37:41;;;;;;;12.00;6.57;;;;;;;;;;4977990;28;20047;-76
2023/03/16 08:40:17;;;;;;;10.90;6.20;;;;;;;;;;4978364;28;20043;-75
2023/03/16 08:42:44;;;;;;;10.88;6.50;;;;;;;;;;4978552;28;20106;-75
2023/03/16 08:45:10;;;;;;;9.65;6.60;;;;;;;;;;4978270;28;20054;-75
2023/03/16 08:47:37;;;;;;;9.95;7.22;;;;;;;;;;4977593;28;20039;-75
2023/03/16 08:50:04;;;;;;;8.93;6.35;;;;;;;;;;4978409;28;20051;-78
2023/03/16 08:52:32;;;;;;;8.98;5.75;;;;;;;;;;4979482;28;20089;-75
2023/03/16 08:54:58;;;;;;;11.80;6.32;;;;;;;;;;4982719;28;20053;-78
2023/03/16 08:57:25;;;;;;;9.65;6.43;;;;;;;;;;4971702;28;20097;-75
2023/03/16 08:59:51;;;;;;;10.82;6.60;;;;;;;;;;4958879;28;20055;-75
2023/03/16 09:02:17;;;;;;;9.52;6.07;;;;;;;;;;4975993;28;20148;-74
2023/03/16 09:04:44;;;;;;;9.75;6.00;;;;;;;;;;4975876;28;20049;-74
2023/03/16 09:07:11;;;;;;;11.90;6.28;;;;;;;;;;4977856;28;20055;-76
2023/03/16 09:09:38;;;;;;;8.45;5.32;;;;;;;;;;4977660;28;20051;-75
2023/03/16 09:12:05;;;;;;;8.88;5.72;;;;;;;;;;4977242;28;20393;-76
2023/03/16 09:14:31;;;;;;;11.63;6.00;;;;;;;;;;4976390;28;20578;-75
2023/03/16 09:16:57;;;;;;;9.32;6.22;;;;;;;;;;4976925;28;20047;-75
2023/03/16 09:19:24;;;;;;;10.80;6.25;;;;;;;;;;4977101;28;20458;-75
2023/03/16 09:21:50;;;;;;;11.32;6.18;;;;;;;;;;4976500;28;20078;-75
2023/03/16 09:24:16;;;;;;;8.93;5.47;;;;;;;;;;4976346;28;20042;-75
2023/03/16 09:26:42;;;;;;;10.30;5.50;;;;;;;;;;4976205;28;20041;-75
2023/03/16 09:29:09;;;;;;;8.95;6.47;;;;;;;;;;4976509;28;20077;-75
2023/03/16 09:31:35;;;;;;;8.70;6.07;;;;;;;;;;4977334;28;20082;-80
2023/03/16 09:34:01;;;;;;;11.18;5.70;;;;;;;;;;4975353;28;20047;-75
2023/03/16 09:36:27;;;;;;;7.25;5.40;;;;;;;;;;4976211;28;20061;-75
2023/03/16 09:38:54;;;;;;;7.60;5.47;;;;;;;;;;4976158;28;20118;-75
2023/03/16 09:41:33;;;;;;;7.45;5.50;;;;;;;;;;4975645;28;20413;-75
2023/03/16 09:44:26;;;;;;;7.28;5.57;;;;;;;;;;4977037;28;20050;-75
2023/03/16 09:46:54;;;;;;;8.02;5.60;;;;;;;;;;4974027;28;20061;-76
2023/03/16 09:49:21;;;;;;;7.78;5.10;;;;;;;;;;4976697;28;20122;-75
2023/03/16 09:51:47;;;;;;;9.60;5.28;;;;;;;;;;4970856;28;20046;-75
2023/03/16 09:54:26;;;;;;;8.50;5.60;;;;;;;;;;4957336;28;20051;-75
2023/03/16 09:56:54;;;;;;;9.13;5.60;;;;;;;;;;4973821;28;20046;-75
2023/03/16 09:59:21;;;;;;;10.90;5.85;;;;;;;;;;4977077;28;20043;-76
2023/03/16 10:01:51;;;;;;;7.32;4.95;;;;;;;;;;4997702;28;20050;-76
2023/03/16 10:04:39;;;;;;;13.15;5.43;;;;;;;;;;4996757;28;20046;-76
2023/03/16 10:07:05;;;;;;;9.35;5.25;;;;;;;;;;4979537;28;20051;-76
2023/03/16 10:09:49;;;;;;;6.97;4.57;;;;;;;;;;4978219;28;20049;-77
2023/03/16 10:12:16;;;;;;;9.10;5.30;;;;;;;;;;4976967;28;20382;-76
2023/03/16 10:14:47;;;;;;;8.27;5.47;;;;;;;;;;4980514;28;20377;-76
2023/03/16 10:17:26;;;;;;;7.93;5.40;;;;;;;;;;4961248;28;20051;-76
2023/03/16 10:19:56;;;;;;;9.25;4.90;;;;;;;;;;4956058;28;20142;-75
2023/03/16 10:22:34;;;;;;;7.25;5.20;;;;;;;;;;4967093;28;20089;-75
2023/03/16 10:25:03;;;;;;;7.95;5.10;;;;;;;;;;4976256;28;20534;-76
2023/03/16 10:27:30;;;;;;;8.10;5.47;;;;;;;;;;4975735;28;20502;-75
2023/03/16 10:29:56;;;;;;;9.18;5.40;;;;;;;;;;4976152;28;20054;-75
2023/03/16 10:32:27;;;;;;;7.07;5.20;;;;;;;;;;4975654;28;20405;-75
2023/03/16 10:34:57;;;;;;;9.23;5.57;;;;;;;;;;4974458;28;20049;-75
2023/03/16 10:37:25;;;;;;;7.55;4.72;;;;;;;;;;4975576;28;20055;-76
2023/03/16 10:39:51;;;;;;;8.18;5.05;;;;;;;;;;4975382;28;20050;-76
2023/03/16 10:42:18;;;;;;;6.30;4.50;;;;;;;;;;4976773;28;20046;-81
2023/03/16 10:44:45;;;;;;;8.50;4.90;;;;;;;;;;4978135;28;20101;-77
2023/03/16 10:47:24;;;;;;;8.55;5.50;;;;;;;;;;4977787;28;20043;-77
2023/03/16 10:49:50;;;;;;;10.02;5.65;;;;;;;;;;4977086;28;20050;-83
2023/03/16 10:52:19;;;;;;;6.85;5.28;;;;;;;;;;4976019;28;20074;-76
2023/03/16 10:54:51;;;;;;;7.35;4.88;;;;;;;;;;4975065;28;20482;-76
2023/03/16 10:57:30;;;;;;;7.70;4.50;;;;;;;;;;4975697;28;20054;-76
2023/03/16 10:59:59;;;;;;;7.80;4.57;;;;;;;;;;4975337;28;20094;-76
2023/03/16 11:02:31;;;;;;;7.10;4.70;;;;;;;;;;4974961;28;20565;-77
2023/03/16 11:04:57;;;;;;;8.00;4.88;;;;;;;;;;4975235;28;20113;-77
2023/03/16 11:07:24;;;;;;;7.72;5.03;;;;;;;;;;4974030;28;20051;-77
2023/03/16 11:09:51;;;;;;;8.20;5.28;;;;;;;;;;4975530;28;20150;-77
2023/03/16 11:12:30;;;;;;;5.95;4.53;;;;;;;;;;4976429;28;20549;-78
2023/03/16 11:15:13;;;;;;;5.88;4.47;;;;;;;;;;4974137;28;20039;-76
2023/03/16 11:17:43;;;;;;;9.23;4.55;;;;;;;;;;4974773;28;20059;-75
2023/03/16 11:20:16;;;;;;;6.97;4.78;;;;;;;;;;4975156;28;20459;-75
2023/03/16 11:22:47;;;;;;;11.93;4.13;;;;;;;;;;4974944;28;20091;-75
2023/03/16 11:25:29;;;;;;;5.65;4.32;;;;;;;;;;4974712;28;20043;-75
2023/03/16 11:28:12;;;;;;;7.10;3.85;;;;;;;;;;4974802;28;20113;-76
2023/03/16 11:30:38;;;;;;;5.80;4.25;;;;;;;;;;4978774;28;20122;-75
2023/03/16 11:33:08;;;;;;;5.70;4.20;;;;;;;;;;4979600;28;20121;-75
2023/03/16 11:35:44;;;;;;;6.32;4.40;;;;;;;;;;4976012;28;20043;-75
2023/03/16 11:38:10;;;;;;;7.03;4.40;;;;;;;;;;4975239;28;20207;-75
2023/03/16 11:40:55;;;;;;;6.35;4.40;;;;;;;;;;4990123;28;20057;-75
2023/03/16 11:43:21;;;;;;;7.93;4.13;;;;;;;;;;4974909;28;20051;-75
2023/03/16 11:45:53;;;;;;;6.95;4.25;;;;;;;;;;4974522;28;20053;-75
2023/03/16 11:48:31;;;;;;;8.52;4.68;;;;;;;;;;4974889;28;20054;-75
2023/03/16 11:51:00;;;;;;;6.43;4.47;;;;;;;;;;4974919;28;20043;-75
2023/03/16 11:53:47;;;;;;;7.25;4.50;;;;;;;;;;4974121;28;20093;-75
2023/03/16 11:56:23;;;;;;;9.77;4.55;;;;;;;;;;4974512;28;20042;-75
2023/03/16 11:59:02;;;;;;;7.28;4.38;;;;;;;;;;4974845;28;20055;-75
2023/03/16 12:01:28;;;;;;;7.43;4.28;;;;;;;;;;4975118;28;20130;-75
2023/03/16 12:03:58;;;;;;;6.05;4.32;;;;;;;;;;4975071;28;20078;-75
2023/03/16 12:06:34;;;;;;;6.53;4.05;;;;;;;;;;4959575;28;20051;-75
2023/03/16 12:09:03;;;;;;;7.07;4.30;;;;;;;;;;4963402;28;20040;-75
2023/03/16 12:11:32;;;;;;;6.53;4.45;;;;;;;;;;4978273;28;20046;-75
2023/03/16 12:14:01;;;;;;;6.63;4.32;;;;;;;;;;4978362;28;20079;-75
2023/03/16 12:16:33;;;;;;;7.40;4.80;;;;;;;;;;4978313;28;20189;-75
2023/03/16 12:19:01;;;;;;;7.13;4.80;;;;;;;;;;4978353;28;20097;-75
2023/03/16 12:21:36;;;;;;;7.63;4.43;;;;;;;;;;4977815;28;20055;-75
2023/03/16 12:24:05;;;;;;;7.47;4.80;;;;;;;;;;4993136;28;20512;-75
2023/03/16 12:26:34;;;;;;;6.93;4.50;;;;;;;;;;4977347;28;20165;-75
2023/03/16 12:29:04;;;;;;;8.82;4.75;;;;;;;;;;4977209;28;20049;-75
2023/03/16 12:31:40;;;;;;;8.45;4.57;;;;;;;;;;4978283;28;20050;-75
2023/03/16 12:34:08;;;;;;;7.95;4.60;;;;;;;;;;4978185;28;20386;-75
2023/03/16 12:36:34;;;;;;;7.13;4.55;;;;;;;;;;4976960;28;20034;-76
2023/03/16 12:39:00;;;;;;;6.22;4.28;;;;;;;;;;4977750;28;20050;-74
2023/03/16 12:41:27;;;;;;;7.43;4.63;;;;;;;;;;4977361;28;20054;-74
2023/03/16 12:44:14;;;;;;;8.30;4.43;;;;;;;;;;4977537;28;20109;-74
2023/03/16 12:46:59;;;;;;;7.75;4.35;;;;;;;;;;4977267;28;20055;-74
2023/03/16 12:49:25;;;;;;;7.57;4.30;;;;;;;;;;4978250;28;20038;-74
2023/03/16 12:52:02;;;;;;;7.35;4.10;;;;;;;;;;4978001;28;20488;-74
2023/03/16 12:54:28;;;;;;;6.47;4.55;;;;;;;;;;4976886;28;20039;-74
2023/03/16 12:57:05;;;;;;;6.40;4.20;;;;;;;;;;4970791;28;20096;-74
2023/03/16 12:59:37;;;;;;;7.30;4.60;;;;;;;;;;4964592;28;20106;-74
2023/03/16 13:02:05;;;;;;;6.65;4.70;;;;;;;;;;4958890;28;20047;-74
2023/03/16 13:04:38;;;;;;;9.38;5.00;;;;;;;;;;4973384;28;20054;-74
2023/03/16 13:07:06;;;;;;;6.38;4.38;;;;;;;;;;4977587;28;20047;-74
2023/03/16 13:09:34;;;;;;;7.65;4.43;;;;;;;;;;4977090;28;20506;-74
2023/03/16 13:12:03;;;;;;;7.22;4.05;;;;;;;;;;4977372;28;20042;-74
2023/03/16 13:14:40;;;;;;;6.55;4.78;;;;;;;;;;4976962;28;20054;-74
2023/03/16 13:17:15;;;;;;;5.70;3.95;;;;;;;;;;4977211;28;20355;-74
2023/03/16 13:19:46;;;;;;;7.03;4.00;;;;;;;;;;4977141;28;20062;-74
2023/03/16 13:22:21;;;;;;;6.70;4.50;;;;;;;;;;4976999;28;20098;-75
2023/03/16 13:24:56;;;;;;;5.32;3.90;;;;;;;;;;4975458;28;20047;-74
2023/03/16 13:27:27;;;;;;;6.40;4.53;;;;;;;;;;4977143;28;20098;-75
2023/03/16 13:30:00;;;;;;;7.13;4.13;;;;;;;;;;4977635;28;20078;-75
2023/03/16 13:32:30;;;;;;;8.52;4.63;;;;;;;;;;4977081;28;20133;-74
2023/03/16 13:34:57;;;;;;;5.10;4.07;;;;;;;;;;4976915;28;20504;-74
2023/03/16 13:37:23;;;;;;;6.55;3.92;;;;;;;;;;4976642;28;20043;-74
2023/03/16 13:39:58;;;;;;;7.30;4.30;;;;;;;;;;4976612;28;20119;-75
2023/03/16 13:42:25;;;;;;;7.07;4.07;;;;;;;;;;4976589;28;20122;-75
2023/03/16 13:44:56;;;;;;;5.95;4.20;;;;;;;;;;4976944;28;20042;-75
2023/03/16 13:47:22;;;;;;;6.35;4.10;;;;;;;;;;4976353;28;20050;-75
2023/03/16 13:49:50;;;;;;;6.75;4.20;;;;;;;;;;4976991;28;20121;-74
2023/03/16 13:52:30;;;;;;;5.70;3.97;;;;;;;;;;4976297;28;20483;-74
2023/03/16 13:54:59;;;;;;;5.88;3.92;;;;;;;;;;4975659;28;20145;-73
2023/03/16 13:57:30;;;;;;;6.35;4.85;;;;;;;;;;4975859;28;20057;-74
2023/03/16 14:00:23;;;;;;;7.75;3.90;;;;;;;;;;4976534;28;20047;-75
2023/03/16 14:02:55;;;;;;;7.65;4.50;;;;;;;;;;4975587;28;20105;-74
2023/03/16 14:05:26;;;;;;;8.65;4.60;;;;;;;;;;4966375;28;20043;-74
2023/03/16 14:07:53;;;;;;;6.07;4.07;;;;;;;;;;4969491;28;20098;-75
2023/03/16 14:10:20;;;;;;;6.97;4.57;;;;;;;;;;4976288;28;20055;-74
2023/03/16 14:12:56;;;;;;;7.97;4.32;;;;;;;;;;4976345;28;20105;-74
2023/03/16 14:15:25;;;;;;;8.13;4.47;;;;;;;;;;4976492;28;20054;-75
2023/03/16 14:17:53;;;;;;;6.72;4.20;;;;;;;;;;4976005;28;20046;-74
2023/03/16 14:20:22;;;;;;;5.93;4.25;;;;;;;;;;4975947;28;20076;-74
2023/03/16 14:22:51;;;;;;;5.72;4.10;;;;;;;;;;4976333;28;20086;-74
2023/03/16 14:25:27;;;;;;;6.22;3.83;;;;;;;;;;4963274;28;20118;-74
2023/03/16 14:28:00;;;;;;;5.63;4.15;;;;;;;;;;4954827;28;20093;-74
2023/03/16 14:30:29;;;;;;;6.75;4.90;;;;;;;;;;4964802;28;20050;-74
2023/03/16 14:32:59;;;;;;;6.53;4.60;;;;;;;;;;4974641;28;20370;-74
2023/03/16 14:35:27;;;;;;;8.25;4.50;;;;;;;;;;4976302;28;20046;-74
2023/03/16 14:37:55;;;;;;;6.38;4.32;;;;;;;;;;4977386;28;20047;-75
2023/03/16 14:40:32;;;;;;;5.32;3.70;;;;;;;;;;4976563;28;20105;-74
2023/03/16 14:43:01;;;;;;;8.38;4.25;;;;;;;;;;4977557;28;20082;-74
2023/03/16 14:45:29;;;;;;;6.95;4.53;;;;;;;;;;4977059;28;20068;-74
2023/03/16 14:48:00;;;;;;;7.05;4.65;;;;;;;;;;4975724;28;20498;-75
2023/03/16 14:50:26;;;;;;;6.85;4.40;;;;;;;;;;4974768;28;20050;-74